Terminal Aerodrome Forecast
Issued by NWS

Home | Current Version | Previous Version | Text Only | Print | Product List | Glossary On
Versions: 1 2 3 4 5 6 7 8 9 10 11 12 13 14 15 16 17 18 19 20 21 22 23 24 25 26 27 28
000
FTUS46 KOTX 202323
TAFSFF
TAF
KSFF 202323Z 2100/2124 29009KT P6SM VCSH SCT070 BKN110
     FM210200 27008KT P6SM VCSH SCT060 BKN110 OVC200
     FM210400 26006KT P6SM VCSH BKN060 BKN120
     FM210600 22004KT P6SM SCT060 BKN100
     FM211800 25006KT P6SM VCSH BKN050 OVC070=

USA.gov is the U.S. government's official web portal to all federal, state and local government web resources and services.